Current | Forecast
Updated: 2:50 AM CEST on April 22, 2018
Observed at Karup, Denmark
Temperature 5°C
Windchill 4°C
Humidity 93%
Dew Point 4°C
Wind WSW at 6 km/h
Pressure 1019 hPa (Steady)
Conditions Mist
Visibility 1.1 kilometers
UV N/A
Clouds
Yesterday's Maximum 16°C
Yesterday's Minimum 4°C approx.
Yesterday's Heating Degree Days 15 approx.
Sunrise5:56 AM CEST
Sunset8:40 PM CEST
Moon Rise10:58 AM CEST
Moon Set2:56 AM CEST
Moon PhaseMoon Phase
Waxing Crescent
Raw METARMETAR EKKA 220050Z AUTO 24003KT 1100NDV R09R/P2000N R27L/P2000N BR VV002 05/04 Q1019


Monday
. High: 53° F.
Tuesday
. High: 55° F.
Wednesday
. High: 60° F.
Thursday
. High: 57° F.
Friday
. High: 50° F.
Saturday
. High: 53° F.
Sunday
. High: 50° F.
Monday
. High: 50° F.

Units: English | Metric

Find the Weather for any City, State or Zipcode, or Country:

U.S. State List | Severe Weather | Tropical Storms | Ski Conditions
United States | Canada | Central America | South America | Asia | Europe | Australia | Africa | Islands

Weather Underground

© Copyright 2018
The Weather Company, LLC